createdAt,value
2018-03-27T00:02:06.960Z,5.14
2018-03-27T00:04:34.491Z,5.13
2018-03-27T00:07:01.996Z,5.13
2018-03-27T00:09:29.559Z,5.11
2018-03-27T00:11:57.133Z,5.07
2018-03-27T00:14:24.688Z,5.00
2018-03-27T00:16:52.269Z,4.93
2018-03-27T00:19:19.858Z,4.92
2018-03-27T00:21:47.365Z,4.90
2018-03-27T00:24:15.041Z,4.89
2018-03-27T00:26:54.365Z,4.89
2018-03-27T00:29:33.706Z,4.88
2018-03-27T00:32:13.209Z,4.85
2018-03-27T00:34:52.723Z,4.81
2018-03-27T00:37:32.047Z,4.77
2018-03-27T00:40:11.316Z,4.76
2018-03-27T00:42:49.693Z,4.76
2018-03-27T00:45:17.327Z,4.73
2018-03-27T00:47:44.910Z,4.77
2018-03-27T00:50:12.423Z,4.79
2018-03-27T00:52:39.945Z,4.81
2018-03-27T00:55:07.510Z,4.81
2018-03-27T00:57:35.123Z,4.81
2018-03-27T01:00:02.706Z,4.83
2018-03-27T01:02:30.276Z,4.80
2018-03-27T01:04:57.872Z,4.77
2018-03-27T01:07:25.419Z,4.78
2018-03-27T01:09:52.948Z,4.80
2018-03-27T01:12:20.465Z,4.79
2018-03-27T01:14:48.015Z,4.78
2018-03-27T01:17:15.525Z,4.80
2018-03-27T01:19:43.041Z,4.81
2018-03-27T01:22:10.625Z,4.83
2018-03-27T01:24:38.193Z,4.85
2018-03-27T01:27:05.721Z,4.88
2018-03-27T01:29:33.256Z,4.87
2018-03-27T01:32:00.830Z,4.89
2018-03-27T01:34:28.342Z,4.90
2018-03-27T01:36:55.880Z,4.92
2018-03-27T01:39:23.421Z,4.92
2018-03-27T01:41:50.931Z,4.92
2018-03-27T01:44:18.575Z,4.87
2018-03-27T01:46:46.132Z,4.89
2018-03-27T01:49:13.682Z,4.91
2018-03-27T01:51:41.314Z,4.91
2018-03-27T01:54:08.821Z,4.91
2018-03-27T01:56:36.329Z,4.89
2018-03-27T01:59:03.967Z,4.86
2018-03-27T02:01:31.467Z,4.81
2018-03-27T02:03:59.001Z,4.84
2018-03-27T02:06:26.529Z,4.87
2018-03-27T02:08:54.033Z,4.89
2018-03-27T02:11:27.185Z,4.85
2018-03-27T02:14:00.287Z,4.80
2018-03-27T02:16:33.590Z,4.84
2018-03-27T02:19:06.526Z,4.88
2018-03-27T02:21:33.536Z,4.92
2018-03-27T02:24:11.846Z,4.94
2018-03-27T02:26:39.457Z,4.93
2018-03-27T02:29:06.958Z,4.93
2018-03-27T02:31:34.495Z,4.95
2018-03-27T02:34:02.032Z,4.98
2018-03-27T02:36:29.528Z,4.96
2018-03-27T02:38:57.076Z,4.98
2018-03-27T02:41:24.605Z,4.99
2018-03-27T02:43:52.110Z,4.96
2018-03-27T02:46:19.603Z,4.96
2018-03-27T02:48:48.161Z,4.99
2018-03-27T02:51:15.801Z,5.02
2018-03-27T02:53:43.428Z,5.02
2018-03-27T02:56:11.063Z,4.94
2018-03-27T02:58:38.552Z,5.05
2018-03-27T03:01:06.177Z,4.80
2018-03-27T03:03:33.714Z,5.02
2018-03-27T03:06:01.228Z,5.00
2018-03-27T03:08:28.732Z,4.94
2018-03-27T03:10:58.105Z,4.93
2018-03-27T03:13:25.637Z,4.94
2018-03-27T03:15:53.207Z,4.96
2018-03-27T03:18:20.794Z,4.96
2018-03-27T03:20:48.342Z,4.94
2018-03-27T03:23:15.872Z,4.91
2018-03-27T03:25:43.599Z,4.86
2018-03-27T03:28:11.146Z,4.89
2018-03-27T03:30:38.798Z,4.87
2018-03-27T03:33:06.426Z,4.88
2018-03-27T03:35:34.069Z,4.85
2018-03-27T03:38:01.795Z,4.83
2018-03-27T03:40:29.382Z,4.82
2018-03-27T03:42:56.937Z,4.27
2018-03-27T03:45:24.489Z,4.87
2018-03-27T03:47:52.100Z,4.89
2018-03-27T03:50:19.665Z,4.86
2018-03-27T03:52:47.200Z,4.89
2018-03-27T03:55:14.852Z,4.91
2018-03-27T03:57:42.465Z,4.92
2018-03-27T04:00:10.002Z,5.00
2018-03-27T04:02:37.675Z,5.01
2018-03-27T04:05:05.180Z,4.98
2018-03-27T04:07:32.726Z,4.79
2018-03-27T04:10:00.318Z,4.87
2018-03-27T04:12:27.926Z,4.83
2018-03-27T04:14:55.432Z,4.78
2018-03-27T04:17:23.025Z,4.76
2018-03-27T04:19:50.620Z,4.76
2018-03-27T04:22:18.225Z,4.73
2018-03-27T04:24:45.825Z,4.74
2018-03-27T04:27:13.412Z,4.76
2018-03-27T04:29:40.976Z,4.77
2018-03-27T04:32:08.563Z,4.77
2018-03-27T04:34:36.057Z,4.76
2018-03-27T04:37:03.613Z,4.76
2018-03-27T04:39:31.186Z,4.76
2018-03-27T04:41:58.725Z,4.71
2018-03-27T04:44:26.247Z,4.58
2018-03-27T04:46:53.808Z,4.58
2018-03-27T04:49:21.331Z,4.56
2018-03-27T04:51:48.839Z,4.54
2018-03-27T04:54:16.366Z,4.46
2018-03-27T04:56:43.858Z,4.39
2018-03-27T04:59:11.424Z,4.36
2018-03-27T05:01:38.988Z,4.32
2018-03-27T05:04:06.538Z,4.27
2018-03-27T05:06:34.095Z,4.24
2018-03-27T05:09:01.662Z,4.26
2018-03-27T05:11:29.195Z,4.26
2018-03-27T05:13:56.715Z,4.26
2018-03-27T05:16:24.268Z,4.28
2018-03-27T05:18:51.794Z,4.28
2018-03-27T05:21:19.389Z,4.24
2018-03-27T05:23:46.995Z,4.20
2018-03-27T05:26:14.513Z,4.21
2018-03-27T05:28:42.019Z,4.22
2018-03-27T05:31:09.588Z,4.26
2018-03-27T05:33:37.112Z,4.29
2018-03-27T05:36:04.623Z,4.36
2018-03-27T05:38:32.152Z,4.40
2018-03-27T05:40:59.762Z,4.46
2018-03-27T05:43:27.265Z,4.41
2018-03-27T05:45:54.789Z,4.42
2018-03-27T05:48:22.312Z,4.39
2018-03-27T05:50:49.830Z,4.40
2018-03-27T05:53:17.367Z,4.41
2018-03-27T05:55:44.972Z,4.49
2018-03-27T05:58:12.483Z,4.55
2018-03-27T06:00:40.049Z,4.60
2018-03-27T06:03:07.595Z,4.63
2018-03-27T06:05:35.188Z,4.67
2018-03-27T06:08:02.736Z,4.73
2018-03-27T06:10:30.271Z,4.81
2018-03-27T06:12:57.867Z,4.90
2018-03-27T06:15:25.451Z,4.97
2018-03-27T06:17:53.018Z,4.98
2018-03-27T06:20:20.578Z,5.03
2018-03-27T06:22:54.406Z,5.18
2018-03-27T06:25:22.039Z,5.34
2018-03-27T06:27:49.661Z,5.38
2018-03-27T06:30:17.267Z,5.53
2018-03-27T06:32:45.688Z,5.69
2018-03-27T06:35:13.197Z,5.76
2018-03-27T06:37:40.791Z,5.77
2018-03-27T06:40:08.326Z,5.79
2018-03-27T06:42:35.856Z,5.38
2018-03-27T06:45:03.404Z,5.77
2018-03-27T06:47:30.907Z,5.90
2018-03-27T06:49:58.458Z,6.20
2018-03-27T06:52:26.044Z,6.28
2018-03-27T06:54:53.583Z,6.20
2018-03-27T06:57:21.146Z,6.14
2018-03-27T06:59:48.672Z,6.09
2018-03-27T07:02:16.263Z,6.08
2018-03-27T07:04:43.934Z,6.09
2018-03-27T07:07:11.731Z,6.20
2018-03-27T07:09:39.258Z,6.27
2018-03-27T07:12:06.844Z,6.33
2018-03-27T07:14:34.426Z,6.42
2018-03-27T07:17:01.981Z,6.98
2018-03-27T07:19:31.010Z,7.29
2018-03-27T07:21:58.567Z,7.54
2018-03-27T07:24:26.117Z,8.04
2018-03-27T07:26:53.658Z,8.35
2018-03-27T07:29:21.217Z,8.67
2018-03-27T07:31:56.769Z,9.48
2018-03-27T07:50:34.140Z,11.74
2018-03-27T07:53:17.574Z,13.07
2018-03-27T07:56:11.469Z,13.38
2018-03-27T08:01:54.488Z,12.56
2018-03-27T08:04:21.978Z,12.08
2018-03-27T08:06:49.469Z,12.03
2018-03-27T08:09:17.063Z,12.14
2018-03-27T08:11:44.566Z,13.52
2018-03-27T08:14:12.156Z,14.83
2018-03-27T08:16:39.682Z,15.00
2018-03-27T08:19:07.184Z,15.97
2018-03-27T08:21:34.680Z,15.25
2018-03-27T08:24:02.243Z,14.08
2018-03-27T08:26:29.719Z,15.45
2018-03-27T08:28:57.213Z,16.59
2018-03-27T08:31:24.759Z,15.28
2018-03-27T08:33:52.603Z,12.81
2018-03-27T08:36:20.120Z,13.00
2018-03-27T08:38:47.625Z,13.29
2018-03-27T08:41:15.136Z,14.14
2018-03-27T08:43:42.644Z,14.00
2018-03-27T08:46:10.254Z,14.83
2018-03-27T08:48:37.800Z,16.34
2018-03-27T08:51:05.275Z,15.65
2018-03-27T08:53:32.818Z,16.29
2018-03-27T08:56:00.303Z,15.97
2018-03-27T08:58:27.844Z,15.93
2018-03-27T09:00:55.356Z,16.99
2018-03-27T09:03:22.850Z,15.28
2018-03-27T09:05:50.839Z,14.70
2018-03-27T09:08:18.368Z,14.18
2018-03-27T09:10:45.858Z,13.98
2018-03-27T09:13:13.374Z,13.36
2018-03-27T09:15:40.890Z,12.09
2018-03-27T09:18:08.382Z,11.82
2018-03-27T09:20:35.899Z,12.30
2018-03-27T09:23:03.430Z,12.71
2018-03-27T09:25:30.923Z,15.69
2018-03-27T09:27:58.409Z,17.83
2018-03-27T09:30:25.926Z,18.60
2018-03-27T09:32:53.432Z,18.56
2018-03-27T09:35:20.931Z,19.33
2018-03-27T09:37:48.466Z,20.33
2018-03-27T09:40:16.105Z,20.55
2018-03-27T09:42:43.598Z,20.29
2018-03-27T09:45:11.131Z,20.79
2018-03-27T09:47:38.627Z,19.32
2018-03-27T09:50:06.114Z,17.53
2018-03-27T09:52:33.644Z,16.11
2018-03-27T09:55:01.140Z,15.49
2018-03-27T09:57:28.639Z,15.30
2018-03-27T09:59:56.163Z,17.31
2018-03-27T10:02:23.655Z,18.49
2018-03-27T10:04:51.146Z,17.81
2018-03-27T10:07:18.666Z,19.12
2018-03-27T10:09:46.149Z,20.47
2018-03-27T10:12:13.654Z,21.42
2018-03-27T10:14:41.179Z,20.65
2018-03-27T10:17:08.679Z,20.55
2018-03-27T10:19:36.172Z,20.71
2018-03-27T10:22:03.703Z,20.32
2018-03-27T10:24:31.192Z,20.73
2018-03-27T10:26:58.695Z,20.57
2018-03-27T10:29:26.253Z,17.52
2018-03-27T10:31:53.756Z,16.41
2018-03-27T10:34:21.250Z,17.50
2018-03-27T10:36:48.795Z,18.45
2018-03-27T10:39:16.295Z,18.48
2018-03-27T10:41:43.795Z,16.48
2018-03-27T10:44:11.334Z,18.82
2018-03-27T10:46:38.859Z,19.04
2018-03-27T10:49:06.350Z,18.99
2018-03-27T10:51:33.899Z,20.29
2018-03-27T10:54:01.395Z,21.05
2018-03-27T10:56:28.886Z,19.02
2018-03-27T10:58:56.411Z,19.70
2018-03-27T11:01:23.916Z,19.42
2018-03-27T11:03:51.458Z,17.44
2018-03-27T11:06:19.220Z,17.20
2018-03-27T11:08:46.709Z,18.74
2018-03-27T11:11:14.254Z,19.14
2018-03-27T11:13:41.779Z,19.80
2018-03-27T11:16:09.345Z,19.96
2018-03-27T11:18:36.906Z,20.07
2018-03-27T11:21:04.460Z,19.83
2018-03-27T11:23:32.064Z,18.00
2018-03-27T11:25:59.650Z,17.14
2018-03-27T11:28:27.258Z,16.63
2018-03-27T11:30:54.850Z,16.25
2018-03-27T11:33:22.438Z,16.15
2018-03-27T11:35:50.038Z,15.64
2018-03-27T11:38:17.586Z,15.85
2018-03-27T11:40:45.135Z,15.82
2018-03-27T11:43:12.687Z,14.50
2018-03-27T11:45:40.202Z,14.60
2018-03-27T11:48:07.774Z,14.16
2018-03-27T11:50:35.374Z,14.90
2018-03-27T11:53:02.952Z,15.59
2018-03-27T11:55:30.471Z,15.65
2018-03-27T11:57:58.007Z,16.16
2018-03-27T12:00:25.500Z,16.69
2018-03-27T12:02:53.006Z,16.08
2018-03-27T12:05:20.579Z,13.97
2018-03-27T12:07:48.074Z,12.97
2018-03-27T12:10:15.576Z,12.19
2018-03-27T12:12:43.103Z,12.47
2018-03-27T12:15:10.590Z,12.33
2018-03-27T12:17:38.090Z,12.74
2018-03-27T12:20:05.614Z,12.96
2018-03-27T12:22:33.136Z,12.10
2018-03-27T12:25:00.652Z,11.59
2018-03-27T12:27:28.217Z,11.06
2018-03-27T12:29:55.715Z,11.27
2018-03-27T12:32:23.206Z,11.25
2018-03-27T12:34:50.736Z,11.06
2018-03-27T12:37:18.223Z,10.97
2018-03-27T12:39:45.719Z,10.75
2018-03-27T12:42:13.295Z,10.44
2018-03-27T12:44:40.806Z,10.46
2018-03-27T12:47:08.301Z,10.50
2018-03-27T12:49:35.819Z,10.74
2018-03-27T12:52:03.311Z,10.88
2018-03-27T12:54:30.810Z,10.88
2018-03-27T12:56:58.384Z,11.30
2018-03-27T12:59:25.904Z,11.94
2018-03-27T13:01:53.430Z,12.52
2018-03-27T13:04:20.972Z,12.51
2018-03-27T13:06:48.465Z,12.59
2018-03-27T13:09:16.014Z,12.21
2018-03-27T13:11:43.606Z,11.94
2018-03-27T13:14:11.077Z,11.99
2018-03-27T13:16:38.566Z,12.11
2018-03-27T13:19:06.095Z,11.99
2018-03-27T13:21:33.596Z,11.72
2018-03-27T13:24:01.128Z,11.65
2018-03-27T13:26:28.642Z,11.53
2018-03-27T13:28:56.130Z,11.28
2018-03-27T13:31:23.628Z,11.26
2018-03-27T13:33:51.161Z,11.10
2018-03-27T13:36:19.814Z,10.99
2018-03-27T13:38:47.313Z,10.74
2018-03-27T13:41:14.847Z,10.52
2018-03-27T13:43:42.341Z,10.60
2018-03-27T13:46:09.882Z,10.64
2018-03-27T13:48:37.401Z,10.82
2018-03-27T13:51:04.927Z,11.04
2018-03-27T13:53:32.429Z,11.17
2018-03-27T13:55:59.967Z,11.13
2018-03-27T13:58:27.503Z,11.14
2018-03-27T14:00:54.992Z,11.05
2018-03-27T14:03:22.521Z,11.24
2018-03-27T14:05:50.005Z,11.23
2018-03-27T14:08:17.504Z,11.03
2018-03-27T14:10:45.047Z,10.93
2018-03-27T14:13:12.547Z,10.92
2018-03-27T14:15:40.044Z,11.11
2018-03-27T14:18:07.576Z,11.14
2018-03-27T14:20:35.074Z,11.21
2018-03-27T14:23:02.571Z,11.20
2018-03-27T14:25:30.114Z,11.17
2018-03-27T14:27:57.618Z,11.18
2018-03-27T14:30:25.106Z,11.30
2018-03-27T14:32:52.633Z,11.44
2018-03-27T14:35:20.140Z,11.36
2018-03-27T14:37:47.634Z,11.48
2018-03-27T14:40:15.151Z,11.47
2018-03-27T14:42:42.641Z,11.41
2018-03-27T14:45:10.178Z,11.45
2018-03-27T14:47:37.704Z,11.27
2018-03-27T14:50:05.204Z,11.24
2018-03-27T14:52:32.704Z,11.20
2018-03-27T14:55:00.278Z,10.96
2018-03-27T14:57:27.770Z,10.94
2018-03-27T14:59:55.258Z,10.85
2018-03-27T15:02:22.788Z,10.87
2018-03-27T15:04:50.331Z,10.95
2018-03-27T15:07:17.826Z,11.04
2018-03-27T15:09:45.342Z,11.21
2018-03-27T15:12:12.958Z,11.30
2018-03-27T15:14:40.739Z,11.45
2018-03-27T15:17:08.250Z,11.62
2018-03-27T15:19:35.739Z,11.81
2018-03-27T15:22:03.235Z,11.94
2018-03-27T15:24:30.747Z,11.94
2018-03-27T15:26:58.283Z,11.88
2018-03-27T15:29:25.768Z,11.91
2018-03-27T15:31:53.306Z,11.85
2018-03-27T15:34:20.856Z,11.70
2018-03-27T15:36:48.362Z,11.62
2018-03-27T15:39:15.907Z,11.52
2018-03-27T15:41:43.406Z,11.52
2018-03-27T15:44:10.943Z,11.47
2018-03-27T15:46:38.463Z,11.50
2018-03-27T15:49:05.960Z,11.50
2018-03-27T15:51:33.469Z,11.41
2018-03-27T15:54:01.013Z,11.34
2018-03-27T15:56:28.518Z,11.20
2018-03-27T15:58:56.015Z,11.02
2018-03-27T16:01:23.550Z,10.99
2018-03-27T16:03:51.048Z,10.79
2018-03-27T16:06:18.547Z,10.78
2018-03-27T16:08:46.070Z,10.64
2018-03-27T16:11:13.595Z,10.48
2018-03-27T16:13:41.103Z,10.45
2018-03-27T16:16:08.656Z,10.41
2018-03-27T16:18:36.152Z,10.35
2018-03-27T16:21:03.679Z,10.29
2018-03-27T16:23:31.210Z,10.24
2018-03-27T16:25:58.752Z,10.18
2018-03-27T16:28:26.267Z,10.03
2018-03-27T16:30:55.395Z,10.05
2018-03-27T16:33:22.919Z,10.04
2018-03-27T16:35:50.410Z,10.01
2018-03-27T16:38:18.323Z,9.93
2018-03-27T16:40:45.839Z,9.84
2018-03-27T16:43:13.459Z,9.79
2018-03-27T16:45:41.002Z,9.80
2018-03-27T16:48:08.623Z,9.80
2018-03-27T16:50:36.116Z,9.77
2018-03-27T16:53:03.638Z,9.72
2018-03-27T16:55:31.123Z,9.68
2018-03-27T16:57:58.621Z,9.63
2018-03-27T17:00:27.213Z,9.62
2018-03-27T17:02:54.878Z,9.57
2018-03-27T17:05:22.392Z,9.54
2018-03-27T17:07:49.906Z,9.48
2018-03-27T17:10:17.611Z,9.44
2018-03-27T17:12:45.307Z,9.42
2018-03-27T17:15:12.851Z,9.36
2018-03-27T17:17:40.358Z,9.29
2018-03-27T17:20:07.989Z,9.24
2018-03-27T17:22:36.554Z,9.19
2018-03-27T17:25:04.107Z,9.12
2018-03-27T17:27:31.619Z,9.04
2018-03-27T17:29:59.166Z,8.97
2018-03-27T17:32:26.816Z,8.87
2018-03-27T17:34:54.455Z,8.76
2018-03-27T17:37:22.599Z,8.67
2018-03-27T17:39:50.115Z,8.61
2018-03-27T17:42:17.770Z,8.48
2018-03-27T17:44:45.301Z,8.38
2018-03-27T17:47:12.791Z,8.25
2018-03-27T17:49:40.280Z,8.14
2018-03-27T17:52:07.798Z,8.04
2018-03-27T17:54:35.294Z,7.93
2018-03-27T17:57:02.791Z,7.86
2018-03-27T17:59:30.298Z,7.78
2018-03-27T18:01:57.799Z,7.68
2018-03-27T18:04:25.316Z,7.56
2018-03-27T18:06:52.839Z,7.48
2018-03-27T18:09:20.343Z,7.36
2018-03-27T18:11:47.834Z,7.28
2018-03-27T18:14:15.374Z,7.21
2018-03-27T18:16:42.854Z,7.16
2018-03-27T18:19:10.378Z,7.11
2018-03-27T18:21:37.898Z,7.09
2018-03-27T18:24:05.387Z,7.07
2018-03-27T18:26:32.885Z,7.06
2018-03-27T18:29:00.403Z,7.07
2018-03-27T18:31:27.889Z,7.06
2018-03-27T18:33:55.391Z,7.06
2018-03-27T18:36:22.909Z,7.06
2018-03-27T18:38:50.393Z,7.03
2018-03-27T18:41:17.878Z,7.02
2018-03-27T18:43:45.399Z,7.11
2018-03-27T18:46:12.895Z,7.10
2018-03-27T18:48:40.403Z,7.06
2018-03-27T18:51:07.963Z,7.05
2018-03-27T18:53:35.453Z,7.02
2018-03-27T18:56:02.944Z,6.96
2018-03-27T18:58:30.462Z,6.90
2018-03-27T19:00:57.955Z,6.83
2018-03-27T19:03:25.458Z,6.77
2018-03-27T19:05:52.978Z,6.72
2018-03-27T19:08:20.494Z,6.70
2018-03-27T19:10:48.032Z,6.68
2018-03-27T19:13:15.561Z,6.68
2018-03-27T19:15:43.051Z,6.67
2018-03-27T19:18:10.548Z,6.68
2018-03-27T19:20:38.067Z,6.66
2018-03-27T19:23:05.679Z,6.65
2018-03-27T19:25:33.115Z,6.63
2018-03-27T19:28:00.626Z,6.58
2018-03-27T19:30:28.135Z,6.56
2018-03-27T19:32:55.659Z,6.55
2018-03-27T19:35:23.170Z,6.51
2018-03-27T19:37:50.675Z,6.51
2018-03-27T19:40:18.165Z,6.48
2018-03-27T19:42:45.686Z,6.45
2018-03-27T19:45:13.189Z,6.45
2018-03-27T19:47:40.689Z,6.44
2018-03-27T19:50:08.231Z,6.43
2018-03-27T19:52:35.727Z,6.44
2018-03-27T19:55:03.215Z,6.44
2018-03-27T19:57:30.740Z,6.46
2018-03-27T19:59:58.255Z,6.42
2018-03-27T20:02:25.742Z,6.41
2018-03-27T20:04:53.257Z,6.37
2018-03-27T20:07:20.746Z,6.34
2018-03-27T20:09:48.230Z,6.32
2018-03-27T20:12:15.741Z,6.30
2018-03-27T20:14:43.217Z,6.25
2018-03-27T20:17:10.707Z,6.20
2018-03-27T20:19:38.228Z,5.75
2018-03-27T20:22:05.746Z,6.15
2018-03-27T20:24:33.246Z,6.12
2018-03-27T20:27:00.767Z,6.10
2018-03-27T20:29:28.250Z,6.10
2018-03-27T20:31:55.736Z,6.11
2018-03-27T20:34:23.296Z,6.10
2018-03-27T20:36:50.811Z,6.10
2018-03-27T20:39:18.295Z,6.12
2018-03-27T20:41:45.819Z,6.13
2018-03-27T20:44:13.307Z,6.14
2018-03-27T20:46:40.789Z,6.11
2018-03-27T20:49:08.323Z,6.11
2018-03-27T20:51:35.824Z,6.14
2018-03-27T20:54:03.318Z,6.09
2018-03-27T20:56:30.903Z,6.10
2018-03-27T20:58:58.386Z,6.13
2018-03-27T21:01:26.471Z,6.11
2018-03-27T21:03:54.010Z,6.07
2018-03-27T21:06:21.531Z,6.10
2018-03-27T21:08:49.018Z,6.10
2018-03-27T21:11:16.541Z,6.09
2018-03-27T21:13:44.027Z,6.09
2018-03-27T21:16:11.567Z,6.11
2018-03-27T21:18:39.089Z,6.09
2018-03-27T21:21:06.650Z,6.12
2018-03-27T21:23:34.102Z,6.11
2018-03-27T21:26:01.643Z,6.11
2018-03-27T21:28:29.139Z,6.10
2018-03-27T21:30:56.658Z,6.07
2018-03-27T21:33:24.227Z,6.10
2018-03-27T21:35:51.714Z,6.10
2018-03-27T21:38:19.198Z,6.09
2018-03-27T21:40:46.720Z,6.10
2018-03-27T21:43:14.230Z,6.11
2018-03-27T21:45:41.715Z,6.13
2018-03-27T21:48:09.240Z,6.17
2018-03-27T21:50:36.734Z,6.18
2018-03-27T21:53:04.226Z,6.18
2018-03-27T21:55:31.742Z,6.24
2018-03-27T21:57:59.246Z,6.27
2018-03-27T22:00:26.740Z,6.31
2018-03-27T22:02:54.263Z,6.30
2018-03-27T22:05:21.750Z,6.31
2018-03-27T22:07:49.306Z,6.37
2018-03-27T22:10:16.824Z,6.41
2018-03-27T22:12:44.328Z,6.45
2018-03-27T22:15:11.824Z,6.48
2018-03-27T22:17:39.360Z,6.48
2018-03-27T22:20:06.863Z,6.49
2018-03-27T22:22:34.363Z,6.49
2018-03-27T22:25:01.878Z,6.50
2018-03-27T22:27:29.358Z,6.50
2018-03-27T22:29:56.903Z,6.49
2018-03-27T22:32:24.455Z,6.48
2018-03-27T22:34:51.942Z,6.47
2018-03-27T22:37:19.442Z,6.47
2018-03-27T22:39:46.969Z,6.48
2018-03-27T22:42:14.459Z,6.50
2018-03-27T22:44:41.950Z,6.55
2018-03-27T22:47:09.462Z,6.59
2018-03-27T22:49:36.956Z,6.60
2018-03-27T22:52:04.469Z,6.61
2018-03-27T22:54:32.009Z,6.63
2018-03-27T22:56:59.493Z,6.60
2018-03-27T22:59:26.983Z,6.57
2018-03-27T23:01:54.508Z,6.53
2018-03-27T23:04:22.019Z,6.43
2018-03-27T23:06:49.509Z,6.40
2018-03-27T23:09:17.039Z,6.35
2018-03-27T23:11:44.539Z,6.29
2018-03-27T23:14:12.083Z,6.24
2018-03-27T23:16:39.599Z,6.20
2018-03-27T23:19:07.105Z,6.18
2018-03-27T23:21:34.591Z,6.15
2018-03-27T23:24:02.108Z,6.12
2018-03-27T23:26:29.598Z,6.10
2018-03-27T23:28:57.096Z,6.04
2018-03-27T23:31:24.623Z,6.02
2018-03-27T23:33:52.123Z,6.00
2018-03-27T23:36:19.606Z,5.98
2018-03-27T23:38:47.127Z,5.86
2018-03-27T23:41:14.618Z,5.96
2018-03-27T23:43:42.115Z,5.96
2018-03-27T23:46:09.658Z,5.94
2018-03-27T23:48:37.153Z,5.87
2018-03-27T23:51:04.646Z,5.84
2018-03-27T23:53:32.162Z,5.79
2018-03-27T23:55:59.656Z,5.76
2018-03-27T23:58:27.167Z,5.71
